sensor_id;sensor_type;location;lat;lon;timestamp;P1;durP1;ratioP1;P2;durP2;ratioP2
2259;SDS011;333;48.800;9.530;2022-08-25T00:01:45;4.53;;;4.10;;
2259;SDS011;333;48.800;9.530;2022-08-25T00:04:12;4.07;;;3.77;;
2259;SDS011;333;48.800;9.530;2022-08-25T00:06:41;3.87;;;3.57;;
2259;SDS011;333;48.800;9.530;2022-08-25T00:09:09;4.33;;;3.93;;
2259;SDS011;333;48.800;9.530;2022-08-25T00:11:37;4.87;;;4.47;;
2259;SDS011;333;48.800;9.530;2022-08-25T00:14:06;4.53;;;4.03;;
2259;SDS011;333;48.800;9.530;2022-08-25T00:16:35;3.70;;;3.40;;
2259;SDS011;333;48.800;9.530;2022-08-25T00:19:04;3.90;;;3.60;;
2259;SDS011;333;48.800;9.530;2022-08-25T00:21:32;4.27;;;3.60;;
2259;SDS011;333;48.800;9.530;2022-08-25T00:23:59;3.90;;;3.57;;
2259;SDS011;333;48.800;9.530;2022-08-25T00:26:27;4.97;;;4.47;;
2259;SDS011;333;48.800;9.530;2022-08-25T00:28:54;5.43;;;4.40;;
2259;SDS011;333;48.800;9.530;2022-08-25T00:31:21;5.20;;;4.20;;
2259;SDS011;333;48.800;9.530;2022-08-25T00:33:50;4.40;;;4.00;;
2259;SDS011;333;48.800;9.530;2022-08-25T00:36:18;4.40;;;4.00;;
2259;SDS011;333;48.800;9.530;2022-08-25T00:38:46;10.70;;;5.27;;
2259;SDS011;333;48.800;9.530;2022-08-25T00:41:14;4.43;;;4.03;;
2259;SDS011;333;48.800;9.530;2022-08-25T00:43:43;4.50;;;4.13;;
2259;SDS011;333;48.800;9.530;2022-08-25T00:46:12;5.80;;;4.53;;
2259;SDS011;333;48.800;9.530;2022-08-25T00:48:40;5.50;;;4.90;;
2259;SDS011;333;48.800;9.530;2022-08-25T00:51:12;5.47;;;4.97;;
2259;SDS011;333;48.800;9.530;2022-08-25T00:53:40;4.90;;;4.50;;
2259;SDS011;333;48.800;9.530;2022-08-25T00:56:08;10.10;;;5.80;;
2259;SDS011;333;48.800;9.530;2022-08-25T00:58:35;6.60;;;4.67;;
2259;SDS011;333;48.800;9.530;2022-08-25T01:01:02;8.43;;;5.20;;
2259;SDS011;333;48.800;9.530;2022-08-25T01:03:30;5.57;;;5.07;;
2259;SDS011;333;48.800;9.530;2022-08-25T01:05:58;5.43;;;4.97;;
2259;SDS011;333;48.800;9.530;2022-08-25T01:08:28;5.17;;;4.67;;
2259;SDS011;333;48.800;9.530;2022-08-25T01:10:57;6.30;;;5.50;;
2259;SDS011;333;48.800;9.530;2022-08-25T01:13:25;5.90;;;5.30;;
2259;SDS011;333;48.800;9.530;2022-08-25T01:15:54;5.27;;;4.87;;
2259;SDS011;333;48.800;9.530;2022-08-25T01:18:23;4.73;;;4.30;;
2259;SDS011;333;48.800;9.530;2022-08-25T01:20:52;5.53;;;5.03;;
2259;SDS011;333;48.800;9.530;2022-08-25T01:23:19;4.70;;;4.30;;
2259;SDS011;333;48.800;9.530;2022-08-25T01:25:47;5.40;;;4.70;;
2259;SDS011;333;48.800;9.530;2022-08-25T01:28:17;4.77;;;4.47;;
2259;SDS011;333;48.800;9.530;2022-08-25T01:30:45;5.80;;;4.87;;
2259;SDS011;333;48.800;9.530;2022-08-25T01:33:13;6.60;;;5.40;;
2259;SDS011;333;48.800;9.530;2022-08-25T01:35:41;6.10;;;5.50;;
2259;SDS011;333;48.800;9.530;2022-08-25T01:38:09;5.13;;;4.73;;
2259;SDS011;333;48.800;9.530;2022-08-25T01:40:37;5.33;;;4.93;;
2259;SDS011;333;48.800;9.530;2022-08-25T01:43:05;5.40;;;4.90;;
2259;SDS011;333;48.800;9.530;2022-08-25T01:45:33;6.10;;;4.80;;
2259;SDS011;333;48.800;9.530;2022-08-25T01:48:01;4.83;;;4.30;;
2259;SDS011;333;48.800;9.530;2022-08-25T01:50:29;5.40;;;4.90;;
2259;SDS011;333;48.800;9.530;2022-08-25T01:52:59;5.10;;;4.70;;
2259;SDS011;333;48.800;9.530;2022-08-25T01:55:28;5.57;;;5.00;;
2259;SDS011;333;48.800;9.530;2022-08-25T01:58:15;6.67;;;4.77;;
2259;SDS011;333;48.800;9.530;2022-08-25T02:00:43;6.10;;;4.80;;
2259;SDS011;333;48.800;9.530;2022-08-25T02:03:10;5.20;;;4.70;;
2259;SDS011;333;48.800;9.530;2022-08-25T02:05:37;6.10;;;5.50;;
2259;SDS011;333;48.800;9.530;2022-08-25T02:08:05;6.53;;;6.00;;
2259;SDS011;333;48.800;9.530;2022-08-25T02:10:33;5.30;;;4.80;;
2259;SDS011;333;48.800;9.530;2022-08-25T02:13:01;5.93;;;4.97;;
2259;SDS011;333;48.800;9.530;2022-08-25T02:15:28;5.43;;;4.70;;
2259;SDS011;333;48.800;9.530;2022-08-25T02:17:55;6.10;;;5.53;;
2259;SDS011;333;48.800;9.530;2022-08-25T02:20:22;7.03;;;5.00;;
2259;SDS011;333;48.800;9.530;2022-08-25T02:22:50;5.27;;;4.87;;
2259;SDS011;333;48.800;9.530;2022-08-25T02:25:18;4.90;;;4.50;;
2259;SDS011;333;48.800;9.530;2022-08-25T02:27:46;5.90;;;5.30;;
2259;SDS011;333;48.800;9.530;2022-08-25T02:30:14;5.80;;;5.17;;
2259;SDS011;333;48.800;9.530;2022-08-25T02:32:41;5.10;;;4.60;;
2259;SDS011;333;48.800;9.530;2022-08-25T02:35:08;5.33;;;4.83;;
2259;SDS011;333;48.800;9.530;2022-08-25T02:37:35;6.17;;;5.50;;
2259;SDS011;333;48.800;9.530;2022-08-25T02:40:03;5.23;;;4.73;;
2259;SDS011;333;48.800;9.530;2022-08-25T02:42:30;5.07;;;4.67;;
2259;SDS011;333;48.800;9.530;2022-08-25T02:44:59;5.40;;;5.00;;
2259;SDS011;333;48.800;9.530;2022-08-25T02:47:26;6.67;;;5.10;;
2259;SDS011;333;48.800;9.530;2022-08-25T02:49:54;4.80;;;4.40;;
2259;SDS011;333;48.800;9.530;2022-08-25T02:52:21;6.17;;;5.57;;
2259;SDS011;333;48.800;9.530;2022-08-25T02:54:49;4.97;;;4.43;;
2259;SDS011;333;48.800;9.530;2022-08-25T02:57:16;6.13;;;4.77;;
2259;SDS011;333;48.800;9.530;2022-08-25T02:59:43;5.40;;;4.90;;
2259;SDS011;333;48.800;9.530;2022-08-25T03:02:14;5.53;;;5.00;;
2259;SDS011;333;48.800;9.530;2022-08-25T03:04:42;6.60;;;6.00;;
2259;SDS011;333;48.800;9.530;2022-08-25T03:07:09;4.87;;;4.47;;
2259;SDS011;333;48.800;9.530;2022-08-25T03:09:37;4.30;;;3.90;;
2259;SDS011;333;48.800;9.530;2022-08-25T03:12:04;5.00;;;4.60;;
2259;SDS011;333;48.800;9.530;2022-08-25T03:14:33;4.80;;;4.40;;
2259;SDS011;333;48.800;9.530;2022-08-25T03:17:00;6.07;;;5.57;;
2259;SDS011;333;48.800;9.530;2022-08-25T03:19:28;6.13;;;5.33;;
2259;SDS011;333;48.800;9.530;2022-08-25T03:21:55;5.53;;;5.00;;
2259;SDS011;333;48.800;9.530;2022-08-25T03:24:24;6.87;;;5.53;;
2259;SDS011;333;48.800;9.530;2022-08-25T03:26:51;5.10;;;4.57;;
2259;SDS011;333;48.800;9.530;2022-08-25T03:29:17;6.33;;;5.73;;
2259;SDS011;333;48.800;9.530;2022-08-25T03:31:45;5.90;;;5.10;;
2259;SDS011;333;48.800;9.530;2022-08-25T03:34:12;7.03;;;6.00;;
2259;SDS011;333;48.800;9.530;2022-08-25T03:36:42;6.23;;;5.33;;
2259;SDS011;333;48.800;9.530;2022-08-25T03:39:09;7.10;;;6.50;;
2259;SDS011;333;48.800;9.530;2022-08-25T03:41:37;7.50;;;6.00;;
2259;SDS011;333;48.800;9.530;2022-08-25T03:44:04;6.40;;;5.80;;
2259;SDS011;333;48.800;9.530;2022-08-25T03:46:32;6.00;;;5.40;;
2259;SDS011;333;48.800;9.530;2022-08-25T03:49:00;6.90;;;5.43;;
2259;SDS011;333;48.800;9.530;2022-08-25T03:51:28;6.90;;;5.30;;
2259;SDS011;333;48.800;9.530;2022-08-25T03:53:57;6.13;;;5.53;;
2259;SDS011;333;48.800;9.530;2022-08-25T03:56:25;5.27;;;4.87;;
2259;SDS011;333;48.800;9.530;2022-08-25T03:58:52;5.97;;;5.37;;
2259;SDS011;333;48.800;9.530;2022-08-25T04:01:20;6.13;;;5.50;;
2259;SDS011;333;48.800;9.530;2022-08-25T04:03:47;6.93;;;5.93;;
2259;SDS011;333;48.800;9.530;2022-08-25T04:06:15;6.87;;;6.17;;
2259;SDS011;333;48.800;9.530;2022-08-25T04:08:42;7.07;;;6.37;;
2259;SDS011;333;48.800;9.530;2022-08-25T04:11:12;6.10;;;5.60;;
2259;SDS011;333;48.800;9.530;2022-08-25T04:13:39;5.80;;;5.20;;
2259;SDS011;333;48.800;9.530;2022-08-25T04:16:09;6.87;;;6.07;;
2259;SDS011;333;48.800;9.530;2022-08-25T04:18:38;6.20;;;5.50;;
2259;SDS011;333;48.800;9.530;2022-08-25T04:21:05;7.10;;;6.40;;
2259;SDS011;333;48.800;9.530;2022-08-25T04:23:34;8.73;;;5.37;;
2259;SDS011;333;48.800;9.530;2022-08-25T04:26:01;7.33;;;6.57;;
2259;SDS011;333;48.800;9.530;2022-08-25T04:28:30;7.20;;;6.50;;
2259;SDS011;333;48.800;9.530;2022-08-25T04:30:57;7.87;;;6.23;;
2259;SDS011;333;48.800;9.530;2022-08-25T04:33:24;7.77;;;7.07;;
2259;SDS011;333;48.800;9.530;2022-08-25T04:35:51;8.83;;;7.13;;
2259;SDS011;333;48.800;9.530;2022-08-25T04:38:19;8.30;;;7.17;;
2259;SDS011;333;48.800;9.530;2022-08-25T04:40:54;12.43;;;8.37;;
2259;SDS011;333;48.800;9.530;2022-08-25T04:43:21;11.83;;;7.20;;
2259;SDS011;333;48.800;9.530;2022-08-25T04:45:50;8.70;;;6.13;;
2259;SDS011;333;48.800;9.530;2022-08-25T04:48:17;8.83;;;6.70;;
2259;SDS011;333;48.800;9.530;2022-08-25T04:50:44;9.13;;;6.57;;
2259;SDS011;333;48.800;9.530;2022-08-25T04:53:12;8.40;;;7.60;;
2259;SDS011;333;48.800;9.530;2022-08-25T04:55:39;7.83;;;7.03;;
2259;SDS011;333;48.800;9.530;2022-08-25T04:58:06;8.53;;;6.40;;
2259;SDS011;333;48.800;9.530;2022-08-25T05:00:34;7.03;;;6.33;;
2259;SDS011;333;48.800;9.530;2022-08-25T05:03:02;8.30;;;7.10;;
2259;SDS011;333;48.800;9.530;2022-08-25T05:05:30;9.33;;;7.97;;
2259;SDS011;333;48.800;9.530;2022-08-25T05:07:57;7.83;;;7.03;;
2259;SDS011;333;48.800;9.530;2022-08-25T05:10:24;7.30;;;6.60;;
2259;SDS011;333;48.800;9.530;2022-08-25T05:12:51;7.70;;;6.90;;
2259;SDS011;333;48.800;9.530;2022-08-25T05:15:19;7.80;;;7.07;;
2259;SDS011;333;48.800;9.530;2022-08-25T05:18:05;7.23;;;6.60;;
2259;SDS011;333;48.800;9.530;2022-08-25T05:20:34;7.50;;;6.70;;
2259;SDS011;333;48.800;9.530;2022-08-25T05:23:02;7.90;;;7.10;;
2259;SDS011;333;48.800;9.530;2022-08-25T05:25:29;6.57;;;5.97;;
2259;SDS011;333;48.800;9.530;2022-08-25T05:27:57;9.13;;;7.53;;
2259;SDS011;333;48.800;9.530;2022-08-25T05:30:24;7.70;;;7.00;;
2259;SDS011;333;48.800;9.530;2022-08-25T05:32:51;7.90;;;7.20;;
2259;SDS011;333;48.800;9.530;2022-08-25T05:35:19;9.60;;;8.10;;
2259;SDS011;333;48.800;9.530;2022-08-25T05:37:47;7.77;;;6.97;;
2259;SDS011;333;48.800;9.530;2022-08-25T05:40:14;7.97;;;7.17;;
2259;SDS011;333;48.800;9.530;2022-08-25T05:42:41;7.57;;;6.87;;
2259;SDS011;333;48.800;9.530;2022-08-25T05:45:08;8.20;;;7.33;;
2259;SDS011;333;48.800;9.530;2022-08-25T05:47:36;12.07;;;7.47;;
2259;SDS011;333;48.800;9.530;2022-08-25T05:50:03;11.73;;;6.70;;
2259;SDS011;333;48.800;9.530;2022-08-25T05:52:32;7.90;;;7.20;;
2259;SDS011;333;48.800;9.530;2022-08-25T05:54:59;8.57;;;7.33;;
2259;SDS011;333;48.800;9.530;2022-08-25T05:57:26;8.07;;;7.13;;
2259;SDS011;333;48.800;9.530;2022-08-25T05:59:53;9.03;;;7.80;;
2259;SDS011;333;48.800;9.530;2022-08-25T06:02:20;8.70;;;7.87;;
2259;SDS011;333;48.800;9.530;2022-08-25T06:05:05;7.87;;;7.07;;
2259;SDS011;333;48.800;9.530;2022-08-25T06:07:34;8.63;;;7.77;;
2259;SDS011;333;48.800;9.530;2022-08-25T06:10:01;7.07;;;6.40;;
2259;SDS011;333;48.800;9.530;2022-08-25T06:12:28;9.07;;;7.70;;
2259;SDS011;333;48.800;9.530;2022-08-25T06:14:56;7.80;;;7.10;;
2259;SDS011;333;48.800;9.530;2022-08-25T06:17:24;8.37;;;7.53;;
2259;SDS011;333;48.800;9.530;2022-08-25T06:19:51;8.00;;;7.30;;
2259;SDS011;333;48.800;9.530;2022-08-25T06:22:19;11.20;;;8.50;;
2259;SDS011;333;48.800;9.530;2022-08-25T06:24:47;8.67;;;7.77;;
2259;SDS011;333;48.800;9.530;2022-08-25T06:27:15;9.50;;;8.43;;
2259;SDS011;333;48.800;9.530;2022-08-25T06:29:42;9.87;;;8.10;;
2259;SDS011;333;48.800;9.530;2022-08-25T06:32:10;9.00;;;7.90;;
2259;SDS011;333;48.800;9.530;2022-08-25T06:34:37;10.57;;;8.97;;
2259;SDS011;333;48.800;9.530;2022-08-25T06:37:04;8.53;;;7.47;;
2259;SDS011;333;48.800;9.530;2022-08-25T06:39:31;8.13;;;7.10;;
2259;SDS011;333;48.800;9.530;2022-08-25T06:42:00;9.70;;;7.47;;
2259;SDS011;333;48.800;9.530;2022-08-25T06:44:27;8.20;;;7.40;;
2259;SDS011;333;48.800;9.530;2022-08-25T06:46:54;7.43;;;6.83;;
2259;SDS011;333;48.800;9.530;2022-08-25T06:49:21;9.03;;;8.13;;
2259;SDS011;333;48.800;9.530;2022-08-25T06:51:51;31.60;;;27.17;;
2259;SDS011;333;48.800;9.530;2022-08-25T06:54:19;12.20;;;10.57;;
2259;SDS011;333;48.800;9.530;2022-08-25T06:56:46;7.50;;;6.80;;
2259;SDS011;333;48.800;9.530;2022-08-25T06:59:14;8.00;;;7.20;;
2259;SDS011;333;48.800;9.530;2022-08-25T07:01:42;6.70;;;6.10;;
2259;SDS011;333;48.800;9.530;2022-08-25T07:04:10;8.37;;;7.37;;
2259;SDS011;333;48.800;9.530;2022-08-25T07:06:37;7.90;;;6.60;;
2259;SDS011;333;48.800;9.530;2022-08-25T07:09:05;7.83;;;7.13;;
2259;SDS011;333;48.800;9.530;2022-08-25T07:11:33;8.10;;;7.30;;
2259;SDS011;333;48.800;9.530;2022-08-25T07:14:00;8.30;;;7.50;;
2259;SDS011;333;48.800;9.530;2022-08-25T07:16:29;7.73;;;6.93;;
2259;SDS011;333;48.800;9.530;2022-08-25T07:18:57;9.30;;;7.20;;
2259;SDS011;333;48.800;9.530;2022-08-25T07:21:25;7.10;;;6.30;;
2259;SDS011;333;48.800;9.530;2022-08-25T07:23:53;6.43;;;5.90;;
2259;SDS011;333;48.800;9.530;2022-08-25T07:26:23;6.97;;;6.40;;
2259;SDS011;333;48.800;9.530;2022-08-25T07:28:51;7.97;;;7.17;;
2259;SDS011;333;48.800;9.530;2022-08-25T07:31:18;6.97;;;6.37;;
2259;SDS011;333;48.800;9.530;2022-08-25T07:33:47;8.57;;;7.23;;
2259;SDS011;333;48.800;9.530;2022-08-25T07:36:34;7.13;;;6.43;;
2259;SDS011;333;48.800;9.530;2022-08-25T07:39:01;6.97;;;6.40;;
2259;SDS011;333;48.800;9.530;2022-08-25T07:41:30;9.10;;;7.23;;
2259;SDS011;333;48.800;9.530;2022-08-25T07:43:58;8.37;;;7.57;;
2259;SDS011;333;48.800;9.530;2022-08-25T07:46:25;7.40;;;6.67;;
2259;SDS011;333;48.800;9.530;2022-08-25T07:48:54;6.87;;;6.27;;
2259;SDS011;333;48.800;9.530;2022-08-25T07:51:22;7.37;;;6.60;;
2259;SDS011;333;48.800;9.530;2022-08-25T07:53:49;6.37;;;5.77;;
2259;SDS011;333;48.800;9.530;2022-08-25T07:56:17;6.63;;;5.67;;
2259;SDS011;333;48.800;9.530;2022-08-25T07:58:44;6.23;;;5.73;;
2259;SDS011;333;48.800;9.530;2022-08-25T08:01:13;6.13;;;5.53;;
2259;SDS011;333;48.800;9.530;2022-08-25T08:03:40;9.30;;;6.70;;
2259;SDS011;333;48.800;9.530;2022-08-25T08:06:10;6.27;;;5.77;;
2259;SDS011;333;48.800;9.530;2022-08-25T08:08:37;6.33;;;5.80;;
2259;SDS011;333;48.800;9.530;2022-08-25T08:11:12;6.50;;;5.90;;
2259;SDS011;333;48.800;9.530;2022-08-25T08:13:40;6.40;;;5.80;;
2259;SDS011;333;48.800;9.530;2022-08-25T08:16:07;6.93;;;6.33;;
2259;SDS011;333;48.800;9.530;2022-08-25T08:18:35;7.97;;;7.17;;
2259;SDS011;333;48.800;9.530;2022-08-25T08:21:02;7.27;;;6.67;;
2259;SDS011;333;48.800;9.530;2022-08-25T08:23:30;6.83;;;6.30;;
2259;SDS011;333;48.800;9.530;2022-08-25T08:25:58;6.83;;;6.23;;
2259;SDS011;333;48.800;9.530;2022-08-25T08:28:25;6.50;;;5.97;;
2259;SDS011;333;48.800;9.530;2022-08-25T08:30:52;6.50;;;5.93;;
2259;SDS011;333;48.800;9.530;2022-08-25T08:33:20;5.50;;;5.00;;
2259;SDS011;333;48.800;9.530;2022-08-25T08:35:54;7.10;;;6.00;;
2259;SDS011;333;48.800;9.530;2022-08-25T08:38:21;6.37;;;5.77;;
2259;SDS011;333;48.800;9.530;2022-08-25T08:40:52;6.43;;;5.90;;
2259;SDS011;333;48.800;9.530;2022-08-25T08:43:35;5.77;;;5.27;;
2259;SDS011;333;48.800;9.530;2022-08-25T08:46:02;6.63;;;6.00;;
2259;SDS011;333;48.800;9.530;2022-08-25T08:48:34;6.80;;;6.17;;
2259;SDS011;333;48.800;9.530;2022-08-25T08:51:06;6.13;;;5.63;;
2259;SDS011;333;48.800;9.530;2022-08-25T08:53:39;6.57;;;5.97;;
2259;SDS011;333;48.800;9.530;2022-08-25T08:56:10;5.93;;;5.30;;
2259;SDS011;333;48.800;9.530;2022-08-25T08:58:40;6.77;;;6.10;;
2259;SDS011;333;48.800;9.530;2022-08-25T09:01:09;5.43;;;5.03;;
2259;SDS011;333;48.800;9.530;2022-08-25T09:03:39;5.63;;;5.23;;
2259;SDS011;333;48.800;9.530;2022-08-25T09:06:11;5.73;;;5.27;;
2259;SDS011;333;48.800;9.530;2022-08-25T09:08:39;6.23;;;5.73;;
2259;SDS011;333;48.800;9.530;2022-08-25T09:11:11;5.57;;;5.07;;
2259;SDS011;333;48.800;9.530;2022-08-25T09:13:42;8.27;;;5.50;;
2259;SDS011;333;48.800;9.530;2022-08-25T09:16:13;6.20;;;5.70;;
2259;SDS011;333;48.800;9.530;2022-08-25T09:19:21;4.93;;;4.60;;
2259;SDS011;333;48.800;9.530;2022-08-25T09:21:54;5.50;;;5.10;;
2259;SDS011;333;48.800;9.530;2022-08-25T09:24:26;5.37;;;4.90;;
2259;SDS011;333;48.800;9.530;2022-08-25T09:27:00;5.30;;;4.90;;
2259;SDS011;333;48.800;9.530;2022-08-25T09:29:29;4.93;;;4.53;;
2259;SDS011;333;48.800;9.530;2022-08-25T09:32:01;5.37;;;4.97;;
2259;SDS011;333;48.800;9.530;2022-08-25T09:34:30;4.70;;;4.30;;
2259;SDS011;333;48.800;9.530;2022-08-25T09:36:58;5.90;;;5.40;;
2259;SDS011;333;48.800;9.530;2022-08-25T09:39:26;5.23;;;4.73;;
2259;SDS011;333;48.800;9.530;2022-08-25T09:41:57;5.23;;;4.83;;
2259;SDS011;333;48.800;9.530;2022-08-25T09:44:26;5.37;;;4.97;;
2259;SDS011;333;48.800;9.530;2022-08-25T09:46:58;6.10;;;5.33;;
2259;SDS011;333;48.800;9.530;2022-08-25T09:49:30;6.00;;;5.10;;
2259;SDS011;333;48.800;9.530;2022-08-25T09:52:06;5.37;;;4.97;;
2259;SDS011;333;48.800;9.530;2022-08-25T09:54:42;5.30;;;4.80;;
2259;SDS011;333;48.800;9.530;2022-08-25T09:57:09;4.60;;;4.30;;
2259;SDS011;333;48.800;9.530;2022-08-25T09:59:54;6.23;;;5.13;;
2259;SDS011;333;48.800;9.530;2022-08-25T10:02:22;4.67;;;4.27;;
2259;SDS011;333;48.800;9.530;2022-08-25T10:04:49;4.73;;;4.33;;
2259;SDS011;333;48.800;9.530;2022-08-25T10:07:19;4.87;;;4.40;;
2259;SDS011;333;48.800;9.530;2022-08-25T10:09:50;4.90;;;4.50;;
2259;SDS011;333;48.800;9.530;2022-08-25T10:12:19;4.90;;;4.50;;
2259;SDS011;333;48.800;9.530;2022-08-25T10:14:48;6.03;;;5.53;;
2259;SDS011;333;48.800;9.530;2022-08-25T10:17:17;4.73;;;4.37;;
2259;SDS011;333;48.800;9.530;2022-08-25T10:19:49;5.00;;;4.60;;
2259;SDS011;333;48.800;9.530;2022-08-25T10:22:20;5.50;;;5.00;;
2259;SDS011;333;48.800;9.530;2022-08-25T10:24:48;4.70;;;4.30;;
2259;SDS011;333;48.800;9.530;2022-08-25T10:27:21;5.70;;;5.30;;
2259;SDS011;333;48.800;9.530;2022-08-25T10:32:46;4.73;;;4.33;;
2259;SDS011;333;48.800;9.530;2022-08-25T10:35:18;4.80;;;4.40;;
2259;SDS011;333;48.800;9.530;2022-08-25T10:37:49;4.80;;;4.40;;
2259;SDS011;333;48.800;9.530;2022-08-25T10:40:20;5.80;;;5.20;;
2259;SDS011;333;48.800;9.530;2022-08-25T10:42:52;4.70;;;4.30;;
2259;SDS011;333;48.800;9.530;2022-08-25T10:45:23;4.63;;;4.33;;
2259;SDS011;333;48.800;9.530;2022-08-25T10:50:54;5.27;;;4.77;;
2259;SDS011;333;48.800;9.530;2022-08-25T10:53:24;5.70;;;5.20;;
2259;SDS011;333;48.800;9.530;2022-08-25T10:55:56;5.37;;;4.87;;
2259;SDS011;333;48.800;9.530;2022-08-25T10:58:29;6.00;;;5.40;;
2259;SDS011;333;48.800;9.530;2022-08-25T11:01:01;5.23;;;4.47;;
2259;SDS011;333;48.800;9.530;2022-08-25T11:03:37;4.70;;;4.30;;
2259;SDS011;333;48.800;9.530;2022-08-25T11:06:10;5.23;;;4.83;;
2259;SDS011;333;48.800;9.530;2022-08-25T11:08:41;5.33;;;4.93;;
2259;SDS011;333;48.800;9.530;2022-08-25T11:11:20;4.50;;;4.17;;
2259;SDS011;333;48.800;9.530;2022-08-25T11:13:50;5.10;;;4.60;;
2259;SDS011;333;48.800;9.530;2022-08-25T11:16:20;4.37;;;3.97;;
2259;SDS011;333;48.800;9.530;2022-08-25T11:18:49;4.70;;;4.30;;
2259;SDS011;333;48.800;9.530;2022-08-25T11:21:20;5.43;;;5.00;;
2259;SDS011;333;48.800;9.530;2022-08-25T11:23:51;4.37;;;3.97;;
2259;SDS011;333;48.800;9.530;2022-08-25T11:26:21;4.40;;;4.10;;
2259;SDS011;333;48.800;9.530;2022-08-25T11:28:56;4.80;;;4.50;;
2259;SDS011;333;48.800;9.530;2022-08-25T11:31:25;4.77;;;4.37;;
2259;SDS011;333;48.800;9.530;2022-08-25T11:33:52;3.83;;;3.53;;
2259;SDS011;333;48.800;9.530;2022-08-25T11:36:23;4.57;;;4.27;;
2259;SDS011;333;48.800;9.530;2022-08-25T11:38:53;4.13;;;3.83;;
2259;SDS011;333;48.800;9.530;2022-08-25T11:41:24;4.63;;;4.23;;
2259;SDS011;333;48.800;9.530;2022-08-25T11:43:57;4.93;;;4.53;;
2259;SDS011;333;48.800;9.530;2022-08-25T11:46:30;4.33;;;4.03;;
2259;SDS011;333;48.800;9.530;2022-08-25T11:49:06;5.27;;;4.77;;
2259;SDS011;333;48.800;9.530;2022-08-25T11:51:41;4.10;;;3.77;;
2259;SDS011;333;48.800;9.530;2022-08-25T11:54:14;4.80;;;4.50;;
2259;SDS011;333;48.800;9.530;2022-08-25T11:56:42;4.43;;;4.13;;
2259;SDS011;333;48.800;9.530;2022-08-25T12:01:58;3.80;;;3.50;;
2259;SDS011;333;48.800;9.530;2022-08-25T12:04:31;3.80;;;3.50;;
2259;SDS011;333;48.800;9.530;2022-08-25T12:07:20;5.07;;;4.17;;
2259;SDS011;333;48.800;9.530;2022-08-25T12:12:30;14.33;;;4.20;;
2259;SDS011;333;48.800;9.530;2022-08-25T12:15:12;4.33;;;4.03;;
2259;SDS011;333;48.800;9.530;2022-08-25T12:17:40;4.53;;;4.23;;
2259;SDS011;333;48.800;9.530;2022-08-25T12:20:07;4.60;;;4.30;;
2259;SDS011;333;48.800;9.530;2022-08-25T12:22:40;3.87;;;3.57;;
2259;SDS011;333;48.800;9.530;2022-08-25T12:25:19;7.10;;;4.10;;
2259;SDS011;333;48.800;9.530;2022-08-25T12:27:53;4.43;;;4.07;;
2259;SDS011;333;48.800;9.530;2022-08-25T12:30:25;5.00;;;4.37;;
2259;SDS011;333;48.800;9.530;2022-08-25T12:32:57;4.37;;;4.07;;
2259;SDS011;333;48.800;9.530;2022-08-25T12:35:27;4.33;;;4.03;;
2259;SDS011;333;48.800;9.530;2022-08-25T12:38:06;4.67;;;4.27;;
2259;SDS011;333;48.800;9.530;2022-08-25T12:40:36;4.77;;;4.47;;
2259;SDS011;333;48.800;9.530;2022-08-25T12:43:05;3.63;;;3.33;;
2259;SDS011;333;48.800;9.530;2022-08-25T12:45:35;4.50;;;4.20;;
2259;SDS011;333;48.800;9.530;2022-08-25T12:50:49;4.47;;;3.73;;
2259;SDS011;333;48.800;9.530;2022-08-25T12:53:27;4.30;;;3.87;;
2259;SDS011;333;48.800;9.530;2022-08-25T12:56:04;4.23;;;3.90;;
2259;SDS011;333;48.800;9.530;2022-08-25T12:58:33;4.50;;;4.13;;
2259;SDS011;333;48.800;9.530;2022-08-25T13:01:05;4.37;;;4.00;;
2259;SDS011;333;48.800;9.530;2022-08-25T13:06:26;4.93;;;4.63;;
2259;SDS011;333;48.800;9.530;2022-08-25T13:09:08;4.20;;;3.90;;
2259;SDS011;333;48.800;9.530;2022-08-25T13:11:40;4.27;;;3.97;;
2259;SDS011;333;48.800;9.530;2022-08-25T13:14:13;4.20;;;3.90;;
2259;SDS011;333;48.800;9.530;2022-08-25T13:16:50;4.40;;;4.10;;
2259;SDS011;333;48.800;9.530;2022-08-25T13:19:18;4.07;;;3.77;;
2259;SDS011;333;48.800;9.530;2022-08-25T13:21:45;4.53;;;4.23;;
2259;SDS011;333;48.800;9.530;2022-08-25T13:24:15;4.20;;;3.87;;
2259;SDS011;333;48.800;9.530;2022-08-25T13:26:44;3.93;;;3.73;;
2259;SDS011;333;48.800;9.530;2022-08-25T13:29:13;4.20;;;3.90;;
2259;SDS011;333;48.800;9.530;2022-08-25T13:31:49;4.50;;;4.20;;
2259;SDS011;333;48.800;9.530;2022-08-25T13:34:18;4.57;;;4.27;;
2259;SDS011;333;48.800;9.530;2022-08-25T13:36:46;4.17;;;3.87;;
2259;SDS011;333;48.800;9.530;2022-08-25T13:39:34;4.27;;;3.93;;
2259;SDS011;333;48.800;9.530;2022-08-25T13:42:03;4.63;;;4.23;;
2259;SDS011;333;48.800;9.530;2022-08-25T13:44:34;4.40;;;4.10;;
2259;SDS011;333;48.800;9.530;2022-08-25T13:47:04;4.37;;;4.07;;
2259;SDS011;333;48.800;9.530;2022-08-25T13:49:33;4.67;;;4.20;;
2259;SDS011;333;48.800;9.530;2022-08-25T13:52:00;4.10;;;3.80;;
2259;SDS011;333;48.800;9.530;2022-08-25T13:54:29;4.63;;;4.23;;
2259;SDS011;333;48.800;9.530;2022-08-25T13:57:03;4.57;;;4.27;;
2259;SDS011;333;48.800;9.530;2022-08-25T13:59:32;4.50;;;4.20;;
2259;SDS011;333;48.800;9.530;2022-08-25T14:02:01;4.60;;;4.30;;
2259;SDS011;333;48.800;9.530;2022-08-25T14:04:29;4.20;;;3.90;;
2259;SDS011;333;48.800;9.530;2022-08-25T14:09:50;4.70;;;4.40;;
2259;SDS011;333;48.800;9.530;2022-08-25T14:12:36;4.97;;;4.47;;
2259;SDS011;333;48.800;9.530;2022-08-25T14:15:06;4.53;;;4.23;;
2259;SDS011;333;48.800;9.530;2022-08-25T14:17:34;5.40;;;5.00;;
2259;SDS011;333;48.800;9.530;2022-08-25T14:20:02;4.20;;;3.90;;
2259;SDS011;333;48.800;9.530;2022-08-25T14:22:30;5.03;;;4.60;;
2259;SDS011;333;48.800;9.530;2022-08-25T14:24:57;3.50;;;3.30;;
2259;SDS011;333;48.800;9.530;2022-08-25T14:27:24;4.20;;;3.80;;
2259;SDS011;333;48.800;9.530;2022-08-25T14:29:53;4.37;;;4.07;;
2259;SDS011;333;48.800;9.530;2022-08-25T14:32:20;4.70;;;4.40;;
2259;SDS011;333;48.800;9.530;2022-08-25T14:34:47;3.97;;;3.73;;
2259;SDS011;333;48.800;9.530;2022-08-25T14:37:16;4.50;;;4.20;;
2259;SDS011;333;48.800;9.530;2022-08-25T14:39:44;4.93;;;4.53;;
2259;SDS011;333;48.800;9.530;2022-08-25T14:42:11;4.17;;;3.90;;
2259;SDS011;333;48.800;9.530;2022-08-25T14:44:39;4.33;;;4.03;;
2259;SDS011;333;48.800;9.530;2022-08-25T14:47:08;4.20;;;3.90;;
2259;SDS011;333;48.800;9.530;2022-08-25T14:49:37;4.30;;;3.97;;
2259;SDS011;333;48.800;9.530;2022-08-25T14:52:07;4.00;;;3.70;;
2259;SDS011;333;48.800;9.530;2022-08-25T14:54:35;4.20;;;3.90;;
2259;SDS011;333;48.800;9.530;2022-08-25T14:57:02;3.90;;;3.60;;
2259;SDS011;333;48.800;9.530;2022-08-25T14:59:30;4.20;;;4.00;;
2259;SDS011;333;48.800;9.530;2022-08-25T15:01:57;5.27;;;3.50;;
2259;SDS011;333;48.800;9.530;2022-08-25T15:04:26;4.60;;;4.20;;
2259;SDS011;333;48.800;9.530;2022-08-25T15:06:56;4.20;;;3.80;;
2259;SDS011;333;48.800;9.530;2022-08-25T15:09:23;5.27;;;4.60;;
2259;SDS011;333;48.800;9.530;2022-08-25T15:11:50;3.90;;;3.60;;
2259;SDS011;333;48.800;9.530;2022-08-25T15:14:19;4.27;;;3.87;;
2259;SDS011;333;48.800;9.530;2022-08-25T15:16:48;3.90;;;3.60;;
2259;SDS011;333;48.800;9.530;2022-08-25T15:19:16;4.00;;;3.70;;
2259;SDS011;333;48.800;9.530;2022-08-25T15:21:45;4.50;;;4.20;;
2259;SDS011;333;48.800;9.530;2022-08-25T15:24:14;3.97;;;3.40;;
2259;SDS011;333;48.800;9.530;2022-08-25T15:26:42;4.00;;;3.73;;
2259;SDS011;333;48.800;9.530;2022-08-25T15:29:10;4.40;;;4.10;;
2259;SDS011;333;48.800;9.530;2022-08-25T15:31:37;3.73;;;3.50;;
2259;SDS011;333;48.800;9.530;2022-08-25T15:34:05;4.03;;;3.73;;
2259;SDS011;333;48.800;9.530;2022-08-25T15:36:32;3.70;;;3.40;;
2259;SDS011;333;48.800;9.530;2022-08-25T15:39:02;4.33;;;4.03;;
2259;SDS011;333;48.800;9.530;2022-08-25T15:41:29;4.60;;;4.30;;
2259;SDS011;333;48.800;9.530;2022-08-25T15:43:56;4.40;;;4.10;;
2259;SDS011;333;48.800;9.530;2022-08-25T15:46:25;4.40;;;4.00;;
2259;SDS011;333;48.800;9.530;2022-08-25T15:48:54;4.20;;;3.80;;
2259;SDS011;333;48.800;9.530;2022-08-25T15:51:21;4.23;;;3.83;;
2259;SDS011;333;48.800;9.530;2022-08-25T15:53:48;5.10;;;3.70;;
2259;SDS011;333;48.800;9.530;2022-08-25T15:56:17;3.87;;;3.57;;
2259;SDS011;333;48.800;9.530;2022-08-25T15:58:45;3.47;;;3.27;;
2259;SDS011;333;48.800;9.530;2022-08-25T16:01:13;3.60;;;3.40;;
2259;SDS011;333;48.800;9.530;2022-08-25T16:03:40;4.40;;;4.10;;